Muqui, Brazil
Current Conditions -  °F | °C
As of 3:00 PM on Friday 19 Dec 2014 (Local Time) from SBCP Reporting Station
Scattered Clouds Scattered Clouds  
Wind Chill: 91°   Ceiling: Unl
Heat Index: 97°   Visibility: 6mi
Dew Point: 70°   Wind: 16mph
Humidity: 49%   Direction: 70°ENE
Pressure: 29.77"   Gusts: NA
Location:  20.95°S, 41.35°W
Report Text: SBCP 191700Z 07014KT 9999 FEW040TCU SCT100 33/21 Q1008
Loading
Personal Weather Stations






























Interactive Weather Map New forecast layout! Learn more

10-Day Weather Forecast

Advertisements
Track Severe Weather on mobile